createdAt,value
2019-02-03T05:31:39.702Z,88.97
2019-02-03T05:34:09.538Z,91.50
2019-02-03T05:36:38.617Z,97.40
2019-02-03T05:39:08.157Z,92.93
2019-02-03T05:41:37.143Z,83.30
2019-02-03T05:44:06.294Z,86.77
2019-02-03T05:46:35.517Z,77.67
2019-02-03T05:49:05.584Z,93.77
2019-02-03T05:51:34.519Z,87.23
2019-02-03T05:54:03.625Z,86.03
2019-02-03T05:56:32.748Z,84.87
2019-02-03T05:59:01.747Z,80.67
2019-02-03T06:01:30.762Z,79.07
2019-02-03T06:03:59.761Z,79.33
2019-02-03T06:06:28.868Z,75.33
2019-02-03T06:08:57.956Z,64.00
2019-02-03T06:11:26.974Z,62.83
2019-02-03T06:13:55.980Z,70.03
2019-02-03T06:16:25.381Z,78.77
2019-02-03T06:18:54.474Z,65.90
2019-02-03T06:21:23.631Z,60.03
2019-02-03T06:23:52.671Z,58.00
2019-02-03T06:26:21.753Z,70.57
2019-02-03T06:28:50.759Z,64.37
2019-02-03T06:31:20.041Z,57.10
2019-02-03T06:33:53.137Z,56.17
2019-02-03T06:36:22.751Z,60.53
2019-02-03T06:38:52.867Z,63.23
2019-02-03T06:41:21.999Z,55.37
2019-02-03T06:43:51.073Z,52.13
2019-02-03T06:46:35.816Z,49.30
2019-02-03T06:49:08.995Z,52.23
2019-02-03T06:51:38.080Z,44.70
2019-02-03T06:54:07.266Z,50.60
2019-02-03T06:56:36.339Z,53.10
2019-02-03T06:59:05.575Z,49.07
2019-02-03T07:01:34.775Z,44.87
2019-02-03T07:04:03.830Z,45.40
2019-02-03T07:06:33.124Z,49.23
2019-02-03T07:09:02.231Z,34.80
2019-02-03T07:11:31.431Z,41.77
2019-02-03T07:14:00.635Z,44.20
2019-02-03T07:16:40.188Z,47.63
2019-02-03T07:19:00.484Z,43.37
2019-02-03T07:21:29.906Z,41.37
2019-02-03T07:23:58.956Z,36.30
2019-02-03T07:26:29.260Z,41.73
2019-02-03T07:28:58.832Z,39.23
2019-02-03T07:31:28.513Z,38.97
2019-02-03T07:33:57.990Z,35.77
2019-02-03T07:36:27.835Z,39.53
2019-02-03T07:38:57.964Z,39.60
2019-02-03T07:41:27.346Z,37.00
2019-02-03T07:43:58.175Z,35.53
2019-02-03T07:46:27.665Z,40.63
2019-02-03T07:48:57.178Z,31.83
2019-02-03T07:51:26.334Z,34.10
2019-02-03T07:54:07.770Z,30.37
2019-02-03T07:56:27.935Z,29.47
2019-02-03T07:58:57.480Z,30.67
2019-02-03T08:01:28.366Z,28.53
2019-02-03T08:03:58.018Z,37.17
2019-02-03T08:06:27.654Z,34.10
2019-02-03T08:08:57.502Z,35.55
2019-02-03T08:11:27.058Z,34.90
2019-02-03T08:13:56.398Z,27.73
2019-02-03T08:16:25.571Z,32.30
2019-02-03T08:18:54.579Z,37.50
2019-02-03T08:21:23.741Z,48.00
2019-02-03T08:23:53.027Z,93.77
2019-02-03T08:26:22.411Z,193.63
2019-02-03T08:28:51.547Z,140.47
2019-02-03T08:31:20.660Z,300.23
2019-02-03T08:33:49.698Z,126.13
2019-02-03T08:36:18.750Z,35.70
2019-02-03T08:38:47.854Z,33.83
2019-02-03T08:41:16.921Z,25.00
2019-02-03T08:43:46.389Z,27.70
2019-02-03T08:46:15.499Z,25.40
2019-02-03T08:48:44.642Z,29.80
2019-02-03T08:51:13.891Z,17.50
2019-02-03T08:53:42.919Z,17.57
2019-02-03T08:56:12.047Z,18.87
2019-02-03T08:58:41.278Z,21.60
2019-02-03T09:01:10.304Z,16.17
2019-02-03T09:03:39.337Z,22.57
2019-02-03T09:06:08.559Z,14.93
2019-02-03T09:08:37.739Z,16.63
2019-02-03T09:11:06.791Z,14.80
2019-02-03T09:13:35.797Z,19.40
2019-02-03T09:16:05.103Z,13.47
2019-02-03T09:18:35.068Z,12.67
2019-02-03T09:21:04.496Z,13.77
2019-02-03T09:23:33.553Z,14.80
2019-02-03T09:26:02.949Z,20.83
2019-02-03T09:28:32.174Z,14.87
2019-02-03T09:31:01.254Z,17.30
2019-02-03T09:33:30.341Z,15.97
2019-02-03T09:35:59.686Z,14.90
2019-02-03T09:38:29.033Z,12.17
2019-02-03T09:41:00.322Z,14.27
2019-02-03T09:43:30.914Z,12.43
2019-02-03T09:46:00.301Z,14.63
2019-02-03T09:48:29.617Z,16.07
2019-02-03T09:50:59.120Z,14.77
2019-02-03T09:53:29.302Z,12.20
2019-02-03T09:56:00.619Z,16.17
2019-02-03T09:58:29.997Z,13.43
2019-02-03T10:00:59.467Z,14.20
2019-02-03T10:03:28.617Z,15.10
2019-02-03T10:05:57.753Z,17.77
2019-02-03T10:08:26.894Z,14.53
2019-02-03T10:10:56.431Z,13.10
2019-02-03T10:13:25.569Z,17.40
2019-02-03T10:15:54.629Z,12.00
2019-02-03T10:18:24.182Z,14.37
2019-02-03T10:20:53.350Z,15.27
2019-02-03T10:23:22.982Z,12.23
2019-02-03T10:25:52.136Z,12.40
2019-02-03T10:28:21.512Z,10.73
2019-02-03T10:30:50.676Z,11.47
2019-02-03T10:33:19.829Z,11.27
2019-02-03T10:35:49.263Z,10.60
2019-02-03T10:38:18.415Z,9.73
2019-02-03T10:40:49.158Z,9.03
2019-02-03T10:43:18.272Z,9.00
2019-02-03T10:45:47.450Z,12.60
2019-02-03T10:48:17.945Z,14.60
2019-02-03T10:50:47.056Z,16.50
2019-02-03T10:53:16.358Z,15.37
2019-02-03T10:55:46.222Z,15.50
2019-02-03T10:58:15.762Z,15.43
2019-02-03T11:00:45.113Z,14.20
2019-02-03T11:03:14.214Z,14.00
2019-02-03T11:05:45.707Z,25.07
2019-02-03T11:08:15.552Z,12.90
2019-02-03T11:10:45.570Z,14.50
2019-02-03T11:13:15.138Z,17.33
2019-02-03T11:15:44.320Z,11.57
2019-02-03T11:18:13.846Z,15.80
2019-02-03T11:20:43.016Z,11.23
2019-02-03T11:23:12.197Z,14.83
2019-02-03T11:25:41.377Z,13.20
2019-02-03T11:28:10.527Z,14.93
2019-02-03T11:30:39.678Z,13.53
2019-02-03T11:33:10.056Z,15.33
2019-02-03T11:35:39.405Z,17.23
2019-02-03T11:38:08.927Z,17.50
2019-02-03T11:40:40.932Z,17.50
2019-02-03T11:43:09.745Z,15.13
2019-02-03T11:45:41.173Z,15.27
2019-02-03T11:48:16.172Z,12.90
2019-02-03T11:50:45.636Z,12.07
2019-02-03T11:53:16.382Z,15.80
2019-02-03T11:55:45.574Z,13.13
2019-02-03T11:58:14.752Z,9.43
2019-02-03T12:00:43.847Z,9.33
2019-02-03T12:03:13.070Z,10.23
2019-02-03T12:05:42.231Z,16.33
2019-02-03T12:08:11.366Z,23.07
2019-02-03T12:10:40.470Z,13.50
2019-02-03T12:13:10.294Z,11.63
2019-02-03T12:15:39.459Z,13.00
2019-02-03T12:18:08.856Z,12.60
2019-02-03T12:20:38.015Z,10.13
2019-02-03T12:23:07.459Z,13.47
2019-02-03T12:25:38.709Z,10.17
2019-02-03T12:28:08.408Z,18.33
2019-02-03T12:30:37.814Z,14.73
2019-02-03T12:33:07.572Z,10.70
2019-02-03T12:35:36.970Z,15.77
2019-02-03T12:38:06.728Z,13.40
2019-02-03T12:40:36.610Z,16.33
2019-02-03T12:43:06.219Z,19.27
2019-02-03T12:45:35.668Z,17.77
2019-02-03T12:48:08.234Z,20.77
2019-02-03T12:50:40.800Z,20.27
2019-02-03T12:53:10.816Z,17.80
2019-02-03T12:55:44.815Z,15.70
2019-02-03T12:58:19.369Z,22.23
2019-02-03T13:00:49.613Z,19.97
2019-02-03T13:03:25.340Z,27.40
2019-02-03T13:05:56.056Z,20.20
2019-02-03T13:08:31.235Z,26.10
2019-02-03T13:11:02.720Z,28.87
2019-02-03T13:13:33.494Z,24.77
2019-02-03T13:16:20.628Z,24.30
2019-02-03T13:18:49.699Z,28.83
2019-02-03T13:21:33.225Z,24.83
2019-02-03T13:24:07.821Z,25.50
2019-02-03T13:26:40.283Z,34.83
2019-02-03T13:29:10.199Z,27.93
2019-02-03T13:31:51.533Z,25.68
2019-02-03T13:34:26.872Z,24.30
2019-02-03T13:37:01.101Z,28.93
2019-02-03T13:39:30.078Z,32.57
2019-02-03T13:41:59.328Z,31.53
2019-02-03T13:44:28.728Z,32.13
2019-02-03T13:46:57.867Z,36.90
2019-02-03T13:49:27.066Z,34.00
2019-02-03T13:51:56.229Z,38.23
2019-02-03T13:54:25.238Z,39.93
2019-02-03T13:56:54.299Z,33.20
2019-02-03T13:59:25.224Z,40.20
2019-02-03T14:01:54.531Z,34.77
2019-02-03T14:04:23.584Z,34.57
2019-02-03T14:06:52.634Z,37.23
2019-02-03T14:09:22.019Z,39.83
2019-02-03T14:11:51.367Z,38.03
2019-02-03T14:14:20.574Z,34.07
2019-02-03T14:16:49.666Z,40.03
2019-02-03T14:19:18.885Z,33.73
2019-02-03T14:21:47.950Z,37.40
2019-02-03T14:24:17.015Z,44.23
2019-02-03T14:26:46.185Z,43.73
2019-02-03T14:29:15.306Z,36.77
2019-02-03T14:31:44.404Z,38.67
2019-02-03T14:34:13.479Z,34.93
2019-02-03T14:36:42.763Z,47.47
2019-02-03T14:39:12.095Z,37.03
2019-02-03T14:41:41.363Z,46.87
2019-02-03T14:44:10.495Z,37.60
2019-02-03T14:46:39.642Z,36.50
2019-02-03T14:49:08.635Z,39.63
2019-02-03T14:51:37.819Z,46.53
2019-02-03T14:54:06.880Z,37.23
2019-02-03T14:56:35.990Z,38.60
2019-02-03T14:59:05.271Z,39.90
2019-02-03T15:01:34.338Z,47.10
2019-02-03T15:04:03.500Z,35.07
2019-02-03T15:06:34.374Z,37.63
2019-02-03T15:09:04.962Z,38.30
2019-02-03T15:11:34.107Z,37.97
2019-02-03T15:14:03.172Z,42.93
2019-02-03T15:16:32.179Z,41.20
2019-02-03T15:19:01.335Z,36.23
2019-02-03T15:21:30.270Z,42.73
2019-02-03T15:23:59.363Z,44.17
2019-02-03T15:26:28.451Z,39.03
2019-02-03T15:28:57.543Z,40.43
2019-02-03T15:31:27.034Z,41.97
2019-02-03T15:33:56.126Z,36.40
2019-02-03T15:36:25.265Z,39.40
2019-02-03T15:38:54.359Z,36.83
2019-02-03T15:41:23.426Z,41.50
2019-02-03T15:43:52.609Z,37.83
2019-02-03T15:46:21.610Z,36.07
2019-02-03T15:48:50.678Z,40.27
2019-02-03T15:51:19.794Z,37.20
2019-02-03T15:53:48.702Z,46.33
2019-02-03T15:56:17.708Z,32.60
2019-02-03T15:58:46.808Z,33.77
2019-02-03T16:01:16.182Z,39.43
2019-02-03T16:03:45.267Z,34.47
2019-02-03T16:06:14.415Z,33.90
2019-02-03T16:08:43.477Z,29.13
2019-02-03T16:11:12.543Z,32.03
2019-02-03T16:13:41.721Z,30.47
2019-02-03T16:16:10.873Z,30.30
2019-02-03T16:18:40.004Z,31.43
2019-02-03T16:21:09.211Z,28.80
2019-02-03T16:23:38.301Z,33.00
2019-02-03T16:26:08.276Z,23.97
2019-02-03T16:28:37.367Z,34.30
2019-02-03T16:31:06.434Z,30.00
2019-02-03T16:33:35.491Z,35.83
2019-02-03T16:36:04.684Z,32.70
2019-02-03T16:38:34.072Z,34.43
2019-02-03T16:41:03.426Z,52.83
2019-02-03T16:43:32.640Z,39.53
2019-02-03T16:46:01.772Z,35.10
2019-02-03T16:48:30.864Z,40.23
2019-02-03T16:51:00.036Z,26.33
2019-02-03T16:53:29.516Z,37.53
2019-02-03T16:55:58.517Z,31.87
2019-02-03T16:58:27.903Z,30.97
2019-02-03T17:00:57.042Z,30.50
2019-02-03T17:03:26.099Z,35.23
2019-02-03T17:05:55.193Z,34.50
2019-02-03T17:08:24.305Z,28.50
2019-02-03T17:10:53.430Z,28.47
2019-02-03T17:13:22.725Z,26.47
2019-02-03T17:15:57.338Z,23.93
2019-02-03T17:18:26.430Z,27.53
2019-02-03T17:21:02.078Z,23.70
2019-02-03T17:23:27.100Z,34.90
2019-02-03T17:26:02.113Z,23.50
2019-02-03T17:28:31.548Z,28.13
2019-02-03T17:31:00.937Z,28.50
2019-02-03T17:33:30.394Z,31.00
2019-02-03T17:36:00.352Z,29.07
2019-02-03T17:38:30.481Z,36.03
2019-02-03T17:41:00.114Z,33.30
2019-02-03T17:43:29.710Z,41.17
2019-02-03T17:45:58.844Z,28.93
2019-02-03T17:48:27.994Z,36.17
2019-02-03T17:51:01.056Z,29.64
2019-02-03T17:53:30.406Z,37.80
2019-02-03T17:55:59.436Z,32.37
2019-02-03T17:58:28.507Z,30.70
2019-02-03T18:01:00.891Z,34.40
2019-02-03T18:03:30.018Z,41.67
2019-02-03T18:05:59.408Z,35.27
2019-02-03T18:08:28.659Z,36.27
2019-02-03T18:10:57.827Z,30.83
2019-02-03T18:13:26.909Z,40.00
2019-02-03T18:15:56.050Z,36.93
2019-02-03T18:18:25.338Z,34.57
2019-02-03T18:20:54.546Z,32.53
2019-02-03T18:23:25.414Z,33.93
2019-02-03T18:25:54.547Z,43.20
2019-02-03T18:28:23.630Z,27.23
2019-02-03T18:30:52.782Z,40.47
2019-02-03T18:33:21.890Z,45.37
2019-02-03T18:35:51.019Z,37.40
2019-02-03T18:38:20.927Z,29.90
2019-02-03T18:40:50.182Z,32.53
2019-02-03T18:43:19.388Z,37.20
2019-02-03T18:45:48.575Z,30.03
2019-02-03T18:48:18.235Z,33.53
2019-02-03T18:50:47.450Z,40.60
2019-02-03T18:53:16.668Z,32.63
2019-02-03T18:55:45.887Z,32.40
2019-02-03T18:58:14.984Z,35.13
2019-02-03T19:00:44.718Z,30.27
2019-02-03T19:03:14.168Z,36.70
2019-02-03T19:05:43.346Z,33.80
2019-02-03T19:08:13.112Z,31.27
2019-02-03T19:10:42.391Z,33.80
2019-02-03T19:13:11.595Z,27.93
2019-02-03T19:15:42.113Z,37.70
2019-02-03T19:18:11.444Z,34.10
2019-02-03T19:20:41.342Z,36.97
2019-02-03T19:23:11.779Z,31.67
2019-02-03T19:25:41.485Z,35.20
2019-02-03T19:28:10.851Z,36.03
2019-02-03T19:30:40.044Z,31.80
2019-02-03T19:33:09.226Z,40.70
2019-02-03T19:35:38.482Z,32.80
2019-02-03T19:38:07.955Z,31.00
2019-02-03T19:40:37.163Z,40.67
2019-02-03T19:43:07.217Z,36.73
2019-02-03T19:45:36.512Z,28.00
2019-02-03T19:48:06.747Z,33.93
2019-02-03T19:50:37.099Z,32.33
2019-02-03T19:53:06.873Z,29.73
2019-02-03T19:55:38.006Z,38.30
2019-02-03T19:58:07.435Z,40.53
2019-02-03T20:00:38.820Z,38.13
2019-02-03T20:03:08.363Z,38.37
2019-02-03T20:05:42.444Z,39.77
2019-02-03T20:08:10.238Z,39.43
2019-02-03T20:10:39.635Z,45.70
2019-02-03T20:13:09.064Z,40.73
2019-02-03T20:15:38.448Z,43.37
2019-02-03T20:18:07.742Z,37.70
2019-02-03T20:20:37.385Z,35.17
2019-02-03T20:23:06.947Z,33.87
2019-02-03T20:25:36.407Z,42.10
2019-02-03T20:28:06.110Z,31.90
2019-02-03T20:30:38.932Z,45.60
2019-02-03T20:33:06.511Z,35.30
2019-02-03T20:35:35.747Z,38.83
2019-02-03T20:38:05.589Z,33.33
2019-02-03T20:40:37.315Z,43.53
2019-02-03T20:43:06.542Z,33.00
2019-02-03T20:45:36.213Z,34.70
2019-02-03T20:48:05.930Z,34.70
2019-02-03T20:50:35.058Z,39.57
2019-02-03T20:53:04.591Z,45.23
2019-02-03T20:55:33.918Z,45.57
2019-02-03T20:58:03.120Z,40.70
2019-02-03T21:00:33.346Z,42.40
2019-02-03T21:03:02.546Z,46.80
2019-02-03T21:05:32.101Z,33.33
2019-02-03T21:08:01.167Z,41.27
2019-02-03T21:10:30.746Z,43.03
2019-02-03T21:13:10.091Z,34.13
2019-02-03T21:15:33.926Z,38.57
2019-02-03T21:18:01.935Z,41.97
2019-02-03T21:20:32.331Z,30.03
2019-02-03T21:23:01.540Z,37.50
2019-02-03T21:25:31.022Z,36.07
2019-02-03T21:28:00.227Z,43.00
2019-02-03T21:30:34.637Z,42.63
2019-02-03T21:33:04.250Z,39.70
2019-02-03T21:35:33.499Z,39.17
2019-02-03T21:38:02.663Z,42.97
2019-02-03T21:40:32.104Z,49.97
2019-02-03T21:43:01.441Z,40.03
2019-02-03T21:45:30.612Z,36.33
2019-02-03T21:47:59.882Z,36.50
2019-02-03T21:50:29.450Z,46.20
2019-02-03T21:52:58.589Z,39.13
2019-02-03T21:55:27.978Z,47.20
2019-02-03T22:00:29.763Z,38.43
2019-02-03T22:02:58.867Z,35.03
2019-02-03T22:05:28.368Z,48.53
2019-02-03T22:07:57.918Z,45.97
2019-02-03T22:10:28.921Z,43.57
2019-02-03T22:12:58.090Z,43.27
2019-02-03T22:15:27.279Z,43.23
2019-02-03T22:17:56.588Z,49.10
2019-02-03T22:20:25.748Z,35.67
2019-02-03T22:22:54.943Z,41.20
2019-02-03T22:25:24.043Z,34.10
2019-02-03T22:27:53.526Z,34.80
2019-02-03T22:30:24.945Z,40.27
2019-02-03T22:32:54.111Z,37.43
2019-02-03T22:35:23.219Z,34.87
2019-02-03T22:37:52.415Z,41.77
2019-02-03T22:40:21.610Z,39.93
2019-02-03T22:42:50.768Z,37.50
2019-02-03T22:45:20.303Z,37.03
2019-02-03T22:47:49.369Z,37.07
2019-02-03T22:50:23.574Z,38.43
2019-02-03T22:52:52.700Z,37.67
2019-02-03T22:55:21.867Z,37.10
2019-02-03T22:57:51.236Z,40.70
2019-02-03T23:01:07.154Z,29.60
2019-02-03T23:03:39.961Z,38.57
2019-02-03T23:06:09.048Z,35.93
2019-02-03T23:08:38.090Z,37.07
2019-02-03T23:11:07.143Z,36.33
2019-02-03T23:13:36.335Z,36.03
2019-02-03T23:16:06.137Z,40.27
2019-02-03T23:18:35.230Z,35.67
2019-02-03T23:21:04.406Z,35.13
2019-02-03T23:23:33.572Z,40.90
2019-02-03T23:26:02.814Z,38.53
2019-02-03T23:28:31.889Z,34.93
